Bushy Park, Australia
Current Conditions -  °F | °C
As of 2:30 AM on Sunday 26 Oct 2014 (Local Time) from YMHB Reporting Station
Light Rain Light Rain  
Wind Chill: 50°   Ceiling: 2000
Heat Index: 50°   Visibility: 4mi
Dew Point: 46°   Wind: 6mph
Humidity: 87%   Direction: 120°ESE
Pressure: 30"   Gusts: NA
Location:  42.7°S, 146.88°E
Report Text: YMHB 251530Z 12005KT 6000 -RA FEW010 BKN020 10/08 Q1016
Loading
Personal Weather Stations






























Interactive Weather Map
Tropical Storm Tracking
New forecast layout! Learn more

10-Day Weather Forecast

Advertisements
Track Severe Weather on mobile